Mosinee, WI (54455)

10:12 AM CST on February 14, 2016 (GMT -0600)
Central Wisconsin | | Change Station
CLOSE
Current Station
Airport
Location: Mosinee,
Elevation: 1276 ft
Nearby Weather Stations
Active Advisory: Special Statement

Elev 1276 ft 44.78 °N, 89.67 °W | Updated 27 minutes ago

Clear
Clear
9 °F
Feels Like -6 °F
N
12
Wind Variable Wind from SSE

Today
High -- | Low -- °F
--% Chance of Precip.
Yesterday
High -- | Low -- °F
Precip. -- in
Pressure 30.18 in
Visibility 10.0 miles
Clouds Clear
Windchill -6 °F
Dew Point -6 °F
Humidity 52%
Rainfall 0.00 in
Snow Depth Not available.
7:01 AM 5:25 PM
Waxing Crescent, 43% visible
METAR KCWA 141545Z 15010KT 10SM SKC M13/M21 A3018
Pressure 30.18 in
Visibility 10.0 miles
Clouds Clear
Windchill -6 °F
Dew Point -6 °F
Humidity 52%
Rainfall 0.00 in
Snow Depth Not available.
7:01 AM 5:25 PM
Waxing Crescent, 43% visible
METAR KCWA 141545Z 15010KT 10SM SKC M13/M21 A3018

10-Day Weather Forecast

Almanac

Astronomy

Feb. 14, 2016 Rise Set
Actual Time
Civil Twilight
Nautical Twilight
Astronomical Twilight
Moon
Length of Visible Light
Length of Day
Tomorrow will be .
, % of the Moon is Illuminated

Today's Extremes

State Highs State Lows

Community

WunderPhotos

Upload Photos

1,892,828 photos uploaded!

WunderBlog® & News

Nearby

Air Quality

  Air Quality AQ Index Pollutant
Not available.

Snow Depth

Station Depth Elevation

Earthquake Activity

City Distance Mag. Time & Date
Minimum magnitude displayed is 2.5.

Coastal Water Temperatures

Place Temperature

Stations

Nearby Weather Stations

Station Location Temp. Windchill Dew Point Humidity Wind Precip. Elev Updated Type
                   

Watches & Warnings

Special Statement
Issued: 4:18 AM CST Feb. 14, 2016 – National Weather Service

... Accumulating snow arriving this afternoon and tonight...

Light snow will develop across the region this afternoon and
early evening... then continue through the overnight hours.
Most places will receive 1 to 2 inches of snow... with local
higher amounts.

Snow covered roads and reduced visibilities will result in
locally hazardous travel conditions later today into tonight...
so those with travel plans should adjust them accordingly.



418 am CST sun Feb 14 2016

... Accumulating snow arriving this afternoon and tonight...

Light snow will develop across the region this afternoon and
early evening... then continue through the overnight hours.
Most places will receive 1 to 2 inches of snow... with local
higher amounts.

Snow covered roads and reduced visibilities will result in
locally hazardous travel conditions later today into tonight...
so those with travel plans should adjust them accordingly.